createdAt,value
2019-05-20T00:00:44.026Z,0.70
2019-05-20T00:01:44.055Z,1.00
2019-05-20T00:02:44.005Z,0.80
2019-05-20T00:03:43.998Z,0.60
2019-05-20T00:04:43.984Z,1.20
2019-05-20T00:05:43.998Z,0.70
2019-05-20T00:06:43.980Z,0.70
2019-05-20T00:07:43.974Z,0.70
2019-05-20T00:08:43.961Z,0.70
2019-05-20T00:09:43.933Z,0.80
2019-05-20T00:10:43.911Z,0.50
2019-05-20T00:11:43.919Z,0.80
2019-05-20T00:12:43.923Z,0.60
2019-05-20T00:13:44.713Z,1.10
2019-05-20T00:14:43.872Z,0.70
2019-05-20T00:15:43.861Z,1.10
2019-05-20T00:16:43.876Z,0.70
2019-05-20T00:17:43.843Z,1.50
2019-05-20T00:18:43.849Z,1.00
2019-05-20T00:19:43.820Z,0.80
2019-05-20T00:20:43.830Z,0.70
2019-05-20T00:21:43.801Z,0.70
2019-05-20T00:22:43.805Z,1.50
2019-05-20T00:23:44.743Z,0.60
2019-05-20T00:24:43.765Z,0.80
2019-05-20T00:25:44.705Z,1.10
2019-05-20T00:26:43.754Z,0.80
2019-05-20T00:27:43.743Z,0.70
2019-05-20T00:28:43.723Z,0.60
2019-05-20T00:29:44.213Z,0.80
2019-05-20T00:30:43.701Z,0.80
2019-05-20T00:31:43.683Z,0.70
2019-05-20T00:32:43.686Z,1.30
2019-05-20T00:33:43.660Z,1.00
2019-05-20T00:34:43.654Z,1.00
2019-05-20T00:35:43.660Z,1.20
2019-05-20T00:36:43.645Z,0.60
2019-05-20T00:37:43.626Z,0.80
2019-05-20T00:38:43.608Z,0.80
2019-05-20T00:39:43.606Z,0.80
2019-05-20T00:40:43.590Z,0.80
2019-05-20T00:41:43.589Z,0.70
2019-05-20T00:42:43.575Z,0.70
2019-05-20T00:43:43.551Z,0.90
2019-05-20T00:44:43.538Z,1.00
2019-05-20T00:45:44.206Z,0.50
2019-05-20T00:46:44.211Z,0.90
2019-05-20T00:47:43.520Z,0.70
2019-05-20T00:48:43.497Z,1.00
2019-05-20T00:49:44.214Z,0.70
2019-05-20T00:50:43.485Z,0.60
2019-05-20T00:51:43.471Z,0.70
2019-05-20T00:52:43.474Z,0.90
2019-05-20T00:53:43.451Z,0.70
2019-05-20T00:54:44.221Z,0.80
2019-05-20T00:55:43.433Z,0.50
2019-05-20T00:56:43.409Z,0.80
2019-05-20T00:57:43.422Z,0.80
2019-05-20T00:58:43.399Z,0.70
2019-05-20T00:59:43.374Z,0.70
2019-05-20T01:00:44.207Z,0.50
2019-05-20T01:01:43.362Z,0.70
2019-05-20T01:02:56.096Z,0.90
2019-05-20T01:03:43.363Z,0.90
2019-05-20T01:04:43.318Z,0.60
2019-05-20T01:05:43.318Z,0.70
2019-05-20T01:06:44.211Z,1.20
2019-05-20T01:07:43.336Z,1.00
2019-05-20T01:08:43.324Z,1.00
2019-05-20T01:09:43.276Z,1.30
2019-05-20T01:10:43.255Z,0.70
2019-05-20T01:11:43.242Z,0.70
2019-05-20T01:12:43.257Z,0.70
2019-05-20T01:13:43.239Z,1.00
2019-05-20T01:14:43.232Z,0.90
2019-05-20T01:15:43.204Z,0.80
2019-05-20T01:16:43.214Z,0.70
2019-05-20T01:17:43.707Z,0.70
2019-05-20T01:18:43.194Z,1.00
2019-05-20T01:19:43.175Z,0.70
2019-05-20T01:20:43.145Z,0.40
2019-05-20T01:21:43.136Z,1.00
2019-05-20T01:22:43.131Z,0.50
2019-05-20T01:23:43.227Z,0.60
2019-05-20T01:24:43.134Z,0.40
2019-05-20T01:25:43.093Z,0.70
2019-05-20T01:26:43.709Z,0.60
2019-05-20T01:27:43.081Z,0.70
2019-05-20T01:28:43.219Z,0.50
2019-05-20T01:29:43.070Z,0.70
2019-05-20T01:30:43.062Z,0.90
2019-05-20T01:31:43.023Z,0.70
2019-05-20T01:32:43.020Z,0.70
2019-05-20T01:33:43.019Z,0.70
2019-05-20T01:34:43.026Z,1.00
2019-05-20T01:35:42.982Z,0.70
2019-05-20T01:36:42.977Z,0.60
2019-05-20T01:37:42.960Z,0.80
2019-05-20T01:38:42.971Z,1.30
2019-05-20T01:39:42.956Z,0.60
2019-05-20T01:40:42.929Z,0.70
2019-05-20T01:41:42.926Z,0.70
2019-05-20T01:42:43.835Z,0.80
2019-05-20T01:43:42.911Z,0.70
2019-05-20T01:44:42.908Z,0.70
2019-05-20T01:45:42.880Z,0.70
2019-05-20T01:46:42.894Z,0.80
2019-05-20T01:47:42.875Z,0.80
2019-05-20T01:48:42.853Z,0.90
2019-05-20T01:49:42.848Z,0.90
2019-05-20T01:50:42.820Z,1.00
2019-05-20T01:51:42.809Z,0.80
2019-05-20T01:52:42.801Z,0.60
2019-05-20T01:53:42.816Z,0.70
2019-05-20T01:54:42.789Z,1.00
2019-05-20T01:55:42.779Z,1.00
2019-05-20T01:56:42.760Z,0.70
2019-05-20T01:57:43.711Z,1.00
2019-05-20T01:58:42.736Z,1.10
2019-05-20T01:59:42.753Z,0.80
2019-05-20T02:00:42.705Z,0.80
2019-05-20T02:01:43.226Z,0.60
2019-05-20T02:02:42.723Z,0.80
2019-05-20T02:03:43.212Z,0.70
2019-05-20T02:04:42.690Z,0.80
2019-05-20T02:05:42.656Z,0.80
2019-05-20T02:06:43.225Z,0.70
2019-05-20T02:07:42.650Z,0.80
2019-05-20T02:08:43.231Z,0.60
2019-05-20T02:09:42.670Z,1.10
2019-05-20T02:10:42.604Z,0.70
2019-05-20T02:11:43.218Z,0.80
2019-05-20T02:12:42.579Z,0.90
2019-05-20T02:13:43.212Z,0.70
2019-05-20T02:14:42.734Z,1.20
2019-05-20T02:15:42.590Z,1.00
2019-05-20T02:16:42.548Z,0.60
2019-05-20T02:17:42.524Z,0.80
2019-05-20T02:18:42.537Z,0.90
2019-05-20T02:19:42.741Z,0.70
2019-05-20T02:20:42.505Z,0.80
2019-05-20T02:21:42.510Z,0.80
2019-05-20T02:22:42.481Z,1.00
2019-05-20T02:23:42.456Z,0.80
2019-05-20T02:24:42.471Z,1.00
2019-05-20T02:25:46.589Z,1.20
2019-05-20T02:26:42.502Z,0.70
2019-05-20T02:27:42.414Z,0.90
2019-05-20T02:28:43.290Z,0.80
2019-05-20T02:29:42.455Z,0.90
2019-05-20T02:30:43.246Z,0.80
2019-05-20T02:31:43.214Z,0.70
2019-05-20T02:32:42.367Z,0.80
2019-05-20T02:33:51.714Z,0.60
2019-05-20T02:34:42.362Z,1.40
2019-05-20T02:35:42.351Z,0.90
2019-05-20T02:36:42.335Z,0.90
2019-05-20T02:37:42.332Z,1.10
2019-05-20T02:38:42.299Z,0.70
2019-05-20T02:39:42.299Z,1.30
2019-05-20T02:40:42.293Z,0.50
2019-05-20T02:41:43.214Z,0.80
2019-05-20T02:42:42.266Z,0.80
2019-05-20T02:43:42.252Z,1.30
2019-05-20T02:44:42.724Z,1.10
2019-05-20T02:45:42.224Z,0.70
2019-05-20T02:46:42.230Z,0.70
2019-05-20T02:47:42.715Z,1.00
2019-05-20T02:48:42.211Z,0.60
2019-05-20T02:49:42.216Z,1.00
2019-05-20T02:50:42.741Z,0.90
2019-05-20T02:51:42.168Z,0.80
2019-05-20T02:52:42.147Z,0.80
2019-05-20T02:53:42.133Z,0.90
2019-05-20T02:54:42.166Z,0.70
2019-05-20T02:55:42.136Z,0.80
2019-05-20T02:56:42.107Z,0.70
2019-05-20T02:57:42.719Z,0.70
2019-05-20T02:58:42.087Z,1.40
2019-05-20T02:59:42.085Z,1.40
2019-05-20T03:00:42.288Z,1.60
2019-05-20T03:01:42.054Z,0.60
2019-05-20T03:02:42.057Z,1.00
2019-05-20T03:03:42.030Z,1.10
2019-05-20T03:04:42.735Z,0.70
2019-05-20T03:05:42.033Z,0.70
2019-05-20T03:06:41.999Z,0.80
2019-05-20T03:07:41.996Z,0.80
2019-05-20T03:08:42.000Z,1.20
2019-05-20T03:09:41.969Z,1.20
2019-05-20T03:10:42.314Z,1.00
2019-05-20T03:11:41.960Z,1.00
2019-05-20T03:12:41.932Z,1.50
2019-05-20T03:13:41.923Z,1.10
2019-05-20T03:14:41.920Z,0.70
2019-05-20T03:15:41.918Z,0.80
2019-05-20T03:16:41.892Z,0.70
2019-05-20T03:17:41.902Z,1.30
2019-05-20T03:18:42.797Z,0.90
2019-05-20T03:19:41.879Z,0.90
2019-05-20T03:20:41.865Z,0.80
2019-05-20T03:21:41.834Z,1.10
2019-05-20T03:22:41.835Z,1.10
2019-05-20T03:23:41.816Z,1.00
2019-05-20T03:24:41.804Z,0.60
2019-05-20T03:25:41.808Z,1.10
2019-05-20T03:26:42.725Z,1.00
2019-05-20T03:27:41.768Z,0.70
2019-05-20T03:28:41.759Z,1.10
2019-05-20T03:29:41.757Z,0.80
2019-05-20T03:30:41.750Z,0.80
2019-05-20T03:31:41.745Z,0.90
2019-05-20T03:32:41.725Z,1.00
2019-05-20T03:33:41.703Z,1.10
2019-05-20T03:34:48.324Z,0.70
2019-05-20T03:35:41.696Z,1.90
2019-05-20T03:36:41.694Z,0.90
2019-05-20T03:37:41.669Z,0.90
2019-05-20T03:38:41.650Z,0.80
2019-05-20T03:39:41.646Z,1.40
2019-05-20T03:40:42.219Z,1.20
2019-05-20T03:41:41.655Z,0.90
2019-05-20T03:42:41.606Z,1.00
2019-05-20T03:43:41.591Z,1.10
2019-05-20T03:44:41.582Z,0.70
2019-05-20T03:45:42.232Z,0.80
2019-05-20T03:46:41.599Z,1.00
2019-05-20T03:47:41.614Z,0.70
2019-05-20T03:48:41.540Z,0.70
2019-05-20T03:49:41.529Z,1.30
2019-05-20T03:50:41.516Z,0.80
2019-05-20T03:51:41.532Z,1.00
2019-05-20T03:52:41.495Z,0.60
2019-05-20T03:53:41.485Z,1.00
2019-05-20T03:54:42.220Z,0.80
2019-05-20T03:55:41.466Z,0.90
2019-05-20T03:56:41.465Z,1.50
2019-05-20T03:57:42.219Z,0.60
2019-05-20T03:58:42.221Z,0.70
2019-05-20T03:59:41.419Z,0.70
2019-05-20T04:00:41.411Z,1.10
2019-05-20T04:01:41.440Z,0.80
2019-05-20T04:02:41.393Z,0.70
2019-05-20T04:03:42.222Z,0.80
2019-05-20T04:04:41.372Z,0.80
2019-05-20T04:05:41.356Z,1.10
2019-05-20T04:06:41.745Z,1.20
2019-05-20T04:07:41.337Z,0.80
2019-05-20T04:08:41.336Z,0.90
2019-05-20T04:09:41.313Z,1.10
2019-05-20T04:10:41.311Z,1.60
2019-05-20T04:11:41.305Z,1.20
2019-05-20T04:12:41.294Z,1.10
2019-05-20T04:13:42.226Z,1.40
2019-05-20T04:14:41.270Z,0.80
2019-05-20T04:15:41.250Z,0.80
2019-05-20T04:16:41.251Z,1.10
2019-05-20T04:17:41.234Z,0.70
2019-05-20T04:18:41.217Z,1.10
2019-05-20T04:19:41.207Z,0.90
2019-05-20T04:20:41.721Z,1.00
2019-05-20T04:21:41.195Z,0.90
2019-05-20T04:22:41.222Z,1.00
2019-05-20T04:23:41.204Z,1.00
2019-05-20T04:24:41.727Z,1.20
2019-05-20T04:25:41.734Z,0.90
2019-05-20T04:26:41.147Z,1.10
2019-05-20T04:27:41.130Z,1.20
2019-05-20T04:28:41.113Z,0.90
2019-05-20T04:29:41.097Z,0.70
2019-05-20T04:30:41.092Z,1.10
2019-05-20T04:31:41.097Z,1.10
2019-05-20T04:32:41.086Z,0.90
2019-05-20T04:33:41.065Z,1.10
2019-05-20T04:34:41.047Z,1.10
2019-05-20T04:35:41.044Z,0.80
2019-05-20T04:36:41.020Z,0.90
2019-05-20T04:37:41.077Z,1.10
2019-05-20T04:38:41.006Z,1.30
2019-05-20T04:39:40.989Z,1.10
2019-05-20T04:40:40.980Z,0.80
2019-05-20T04:41:40.965Z,0.80
2019-05-20T04:42:41.247Z,0.90
2019-05-20T04:43:40.944Z,1.00
2019-05-20T04:44:41.728Z,1.50
2019-05-20T04:45:40.929Z,0.80
2019-05-20T04:46:40.914Z,1.40
2019-05-20T04:47:40.930Z,0.80
2019-05-20T04:48:41.726Z,1.00
2019-05-20T04:49:41.727Z,1.10
2019-05-20T04:50:40.884Z,1.00
2019-05-20T04:51:40.850Z,1.00
2019-05-20T04:52:40.865Z,1.10
2019-05-20T04:53:40.835Z,0.60
2019-05-20T04:54:40.821Z,1.70
2019-05-20T04:55:40.807Z,1.20
2019-05-20T04:56:40.805Z,1.30
2019-05-20T04:57:40.826Z,1.10
2019-05-20T04:58:40.784Z,1.10
2019-05-20T04:59:40.767Z,0.90
2019-05-20T05:00:40.755Z,1.40
2019-05-20T05:01:40.757Z,1.20
2019-05-20T05:02:43.459Z,1.20
2019-05-20T05:03:40.732Z,2.00
2019-05-20T05:04:40.713Z,1.20
2019-05-20T05:05:40.698Z,0.90
2019-05-20T05:06:40.697Z,1.20
2019-05-20T05:07:40.710Z,1.00
2019-05-20T05:08:40.742Z,1.10
2019-05-20T05:09:40.655Z,1.10
2019-05-20T05:10:40.648Z,1.10
2019-05-20T05:11:40.654Z,1.10
2019-05-20T05:12:40.649Z,1.10
2019-05-20T05:13:40.626Z,1.30
2019-05-20T05:14:40.689Z,1.00
2019-05-20T05:15:40.598Z,1.40
2019-05-20T05:16:40.582Z,1.30
2019-05-20T05:17:40.588Z,0.90
2019-05-20T05:18:40.572Z,1.50
2019-05-20T05:19:40.549Z,1.10
2019-05-20T05:20:40.556Z,1.60
2019-05-20T05:21:41.288Z,0.90
2019-05-20T05:22:40.513Z,1.00
2019-05-20T05:23:40.761Z,1.30
2019-05-20T05:24:41.239Z,1.10
2019-05-20T05:25:40.490Z,1.10
2019-05-20T05:26:40.529Z,1.80
2019-05-20T05:27:40.473Z,1.10
2019-05-20T05:28:40.744Z,1.00
2019-05-20T05:29:40.461Z,2.20
2019-05-20T05:30:40.428Z,7.80
2019-05-20T05:31:40.419Z,1.10
2019-05-20T05:32:40.429Z,1.60
2019-05-20T05:33:40.403Z,5.70
2019-05-20T05:34:41.229Z,1.30
2019-05-20T05:35:52.357Z,3.80
2019-05-20T05:36:40.364Z,2.30
2019-05-20T05:37:40.380Z,5.90
2019-05-20T05:38:40.349Z,1.50
2019-05-20T05:39:40.348Z,3.90
2019-05-20T05:40:40.317Z,4.10
2019-05-20T05:41:40.309Z,2.40
2019-05-20T05:42:41.235Z,3.50
2019-05-20T05:43:40.751Z,4.30
2019-05-20T05:44:40.294Z,1.70
2019-05-20T05:45:40.292Z,6.70
2019-05-20T05:46:40.263Z,3.60
2019-05-20T05:47:40.248Z,1.70
2019-05-20T05:48:40.260Z,4.70
2019-05-20T05:49:40.730Z,2.50
2019-05-20T05:50:40.220Z,1.60
2019-05-20T05:51:40.735Z,3.20
2019-05-20T05:52:40.751Z,3.60
2019-05-20T05:53:40.222Z,1.90
2019-05-20T05:54:40.170Z,2.00
2019-05-20T05:55:40.162Z,3.30
2019-05-20T05:56:40.144Z,2.70
2019-05-20T05:57:40.729Z,2.10
2019-05-20T05:58:40.131Z,3.00
2019-05-20T05:59:40.255Z,3.30
2019-05-20T06:00:40.127Z,3.20
2019-05-20T06:01:40.147Z,3.70
2019-05-20T06:02:40.083Z,3.70
2019-05-20T06:03:40.076Z,3.60
2019-05-20T06:04:40.074Z,2.10
2019-05-20T06:05:40.047Z,3.30
2019-05-20T06:06:40.036Z,6.60
2019-05-20T06:07:40.727Z,2.30
2019-05-20T06:08:40.021Z,2.20
2019-05-20T06:09:40.029Z,7.10
2019-05-20T06:10:40.740Z,4.40
2019-05-20T06:11:39.987Z,2.80
2019-05-20T06:12:39.981Z,2.30
2019-05-20T06:13:39.978Z,5.50
2019-05-20T06:14:39.971Z,3.70
2019-05-20T06:15:39.937Z,4.50
2019-05-20T06:16:40.737Z,3.00
2019-05-20T06:17:39.916Z,3.20
2019-05-20T06:18:39.921Z,3.50
2019-05-20T06:19:40.259Z,4.40
2019-05-20T06:20:39.905Z,4.40
2019-05-20T06:21:39.881Z,5.90
2019-05-20T06:22:39.869Z,2.20
2019-05-20T06:23:39.896Z,2.50
2019-05-20T06:24:40.254Z,2.70
2019-05-20T06:25:39.853Z,5.60
2019-05-20T06:26:39.829Z,3.80
2019-05-20T06:27:39.810Z,4.70
2019-05-20T06:28:39.815Z,4.60
2019-05-20T06:29:39.793Z,4.10
2019-05-20T06:30:40.752Z,4.50
2019-05-20T06:31:39.785Z,3.00
2019-05-20T06:32:39.764Z,4.00
2019-05-20T06:33:39.747Z,5.30
2019-05-20T06:34:42.609Z,3.20
2019-05-20T06:35:40.233Z,4.60
2019-05-20T06:36:39.711Z,3.40
2019-05-20T06:37:39.700Z,4.70
2019-05-20T06:38:39.700Z,3.10
2019-05-20T06:39:39.688Z,3.00
2019-05-20T06:40:40.247Z,5.90
2019-05-20T06:41:39.652Z,3.10
2019-05-20T06:42:40.272Z,4.70
2019-05-20T06:43:40.240Z,4.00
2019-05-20T06:44:52.195Z,2.30
2019-05-20T06:45:39.612Z,2.00
2019-05-20T06:46:40.235Z,4.20
2019-05-20T06:47:39.604Z,4.60
2019-05-20T06:48:39.577Z,3.00
2019-05-20T06:49:39.579Z,7.20
2019-05-20T06:50:39.557Z,8.00
2019-05-20T06:51:39.549Z,8.90
2019-05-20T06:52:39.683Z,3.80
2019-05-20T06:53:39.552Z,11.20
2019-05-20T06:54:39.543Z,6.90
2019-05-20T06:55:40.254Z,7.70
2019-05-20T06:56:39.817Z,7.80
2019-05-20T06:57:39.484Z,4.60
2019-05-20T06:58:39.472Z,7.30
2019-05-20T06:59:40.255Z,7.30
2019-05-20T07:00:39.452Z,8.20
2019-05-20T07:01:39.439Z,7.10
2019-05-20T07:02:39.424Z,8.00
2019-05-20T07:03:39.419Z,7.60
2019-05-20T07:04:40.258Z,9.60
2019-05-20T07:05:39.400Z,5.90
2019-05-20T07:06:46.652Z,9.70
2019-05-20T07:07:39.379Z,8.70
2019-05-20T07:08:39.360Z,11.90
2019-05-20T07:09:40.287Z,8.00
2019-05-20T07:10:39.753Z,8.40
2019-05-20T07:11:39.328Z,9.90
2019-05-20T07:12:41.523Z,14.70
2019-05-20T07:13:39.379Z,8.30
2019-05-20T07:14:40.237Z,15.30
2019-05-20T07:15:39.337Z,12.70
2019-05-20T07:16:39.286Z,10.20
2019-05-20T07:17:39.263Z,10.00
2019-05-20T07:18:39.253Z,7.10
2019-05-20T07:19:39.254Z,10.50
2019-05-20T07:20:39.235Z,8.10
2019-05-20T07:21:39.218Z,9.80
2019-05-20T07:22:54.590Z,10.20
2019-05-20T07:23:39.192Z,6.10
2019-05-20T07:24:39.204Z,9.50
2019-05-20T07:25:39.193Z,12.30
2019-05-20T07:26:39.738Z,10.30
2019-05-20T07:27:39.736Z,13.00
2019-05-20T07:28:39.167Z,9.90
2019-05-20T07:29:39.128Z,10.60
2019-05-20T07:30:39.144Z,9.60
2019-05-20T07:31:39.108Z,8.70
2019-05-20T07:32:39.098Z,9.30
2019-05-20T07:33:39.128Z,11.40
2019-05-20T07:34:39.752Z,12.70
2019-05-20T07:35:39.083Z,13.30
2019-05-20T07:36:39.055Z,10.30
2019-05-20T07:37:39.739Z,11.20
2019-05-20T07:38:39.736Z,8.60
2019-05-20T07:39:39.027Z,12.30
2019-05-20T07:40:39.017Z,10.00
2019-05-20T07:41:41.726Z,9.60
2019-05-20T07:42:40.071Z,7.50
2019-05-20T07:43:38.976Z,13.00
2019-05-20T07:44:38.963Z,10.60
2019-05-20T07:45:38.963Z,7.60
2019-05-20T07:46:38.940Z,10.10
2019-05-20T07:47:39.737Z,11.20
2019-05-20T07:48:39.044Z,12.90
2019-05-20T07:49:38.921Z,9.40
2019-05-20T07:50:38.909Z,13.70
2019-05-20T07:51:38.915Z,15.10
2019-05-20T07:52:39.740Z,8.40
2019-05-20T07:53:39.758Z,12.40
2019-05-20T07:54:38.869Z,12.90
2019-05-20T07:55:38.898Z,13.10
2019-05-20T07:56:38.839Z,10.80
2019-05-20T07:57:39.787Z,7.90
2019-05-20T07:58:38.831Z,11.10
2019-05-20T07:59:38.800Z,15.20
2019-05-20T08:00:39.276Z,12.20
2019-05-20T08:01:38.785Z,10.80
2019-05-20T08:02:38.802Z,11.30
2019-05-20T08:03:39.747Z,7.80
2019-05-20T08:04:38.774Z,9.20
2019-05-20T08:05:38.766Z,7.30
2019-05-20T08:06:39.247Z,11.70
2019-05-20T08:07:51.141Z,9.40
2019-05-20T08:08:38.708Z,10.00
2019-05-20T08:09:45.229Z,12.80
2019-05-20T08:10:38.682Z,10.40
2019-05-20T08:11:38.754Z,9.60
2019-05-20T08:12:39.281Z,11.30
2019-05-20T08:13:38.672Z,9.80
2019-05-20T08:14:39.250Z,10.80
2019-05-20T08:15:38.629Z,7.70
2019-05-20T08:16:38.778Z,11.50
2019-05-20T08:17:38.629Z,13.30
2019-05-20T08:18:39.254Z,10.90
2019-05-20T08:19:39.261Z,9.20
2019-05-20T08:20:39.254Z,10.60
2019-05-20T08:21:38.823Z,9.60
2019-05-20T08:22:38.548Z,11.50
2019-05-20T08:23:38.561Z,14.10
2019-05-20T08:24:38.539Z,8.30
2019-05-20T08:25:38.577Z,12.40
2019-05-20T08:26:38.788Z,11.40
2019-05-20T08:27:38.490Z,11.50
2019-05-20T08:28:38.478Z,12.80
2019-05-20T08:29:38.482Z,14.20
2019-05-20T08:30:39.245Z,13.60
2019-05-20T08:31:38.760Z,12.10
2019-05-20T08:32:38.436Z,11.00
2019-05-20T08:33:38.427Z,15.80
2019-05-20T08:34:39.683Z,12.20
2019-05-20T08:35:38.833Z,11.20
2019-05-20T08:36:38.402Z,15.30
2019-05-20T08:37:45.219Z,12.00
2019-05-20T08:38:38.366Z,10.30
2019-05-20T08:39:38.388Z,11.40
2019-05-20T08:40:39.275Z,13.10
2019-05-20T08:41:38.370Z,11.50
2019-05-20T08:42:38.337Z,12.70
2019-05-20T08:43:39.246Z,13.30
2019-05-20T08:44:38.319Z,13.60
2019-05-20T08:45:38.294Z,11.30
2019-05-20T08:46:38.292Z,12.50
2019-05-20T08:47:38.305Z,12.40
2019-05-20T08:48:38.269Z,12.10
2019-05-20T08:49:38.523Z,13.10
2019-05-20T08:50:38.253Z,12.20
2019-05-20T08:51:38.241Z,13.60
2019-05-20T08:52:38.216Z,14.30
2019-05-20T08:53:38.767Z,14.80
2019-05-20T08:54:40.428Z,13.90
2019-05-20T08:55:38.769Z,12.70
2019-05-20T08:56:38.241Z,14.50
2019-05-20T08:57:38.811Z,13.50
2019-05-20T08:58:38.150Z,14.00
2019-05-20T08:59:38.140Z,12.00
2019-05-20T09:00:38.128Z,13.40
2019-05-20T09:01:38.788Z,12.80
2019-05-20T09:02:38.321Z,14.70
2019-05-20T09:03:38.108Z,16.60
2019-05-20T09:04:38.787Z,12.90
2019-05-20T09:05:38.155Z,11.60
2019-05-20T09:06:38.073Z,12.60
2019-05-20T09:07:38.071Z,14.30
2019-05-20T09:08:38.040Z,13.80
2019-05-20T09:09:38.088Z,14.40
2019-05-20T09:10:39.698Z,14.10
2019-05-20T09:11:38.013Z,14.00
2019-05-20T09:12:38.272Z,12.20
2019-05-20T09:13:38.003Z,12.40
2019-05-20T09:14:40.480Z,13.30
2019-05-20T09:15:38.762Z,12.40
2019-05-20T09:16:37.971Z,13.90
2019-05-20T09:17:38.960Z,13.10
2019-05-20T09:18:37.934Z,12.50
2019-05-20T09:19:37.926Z,15.10
2019-05-20T09:20:38.797Z,14.10
2019-05-20T09:21:37.930Z,15.40
2019-05-20T09:22:38.278Z,13.10
2019-05-20T09:23:37.895Z,12.70
2019-05-20T09:24:38.789Z,12.60
2019-05-20T09:25:38.780Z,11.20
2019-05-20T09:26:37.850Z,12.60
2019-05-20T09:27:37.851Z,11.70
2019-05-20T09:28:37.855Z,11.20
2019-05-20T09:29:38.197Z,13.00
2019-05-20T09:30:37.806Z,10.20
2019-05-20T09:31:37.797Z,11.70
2019-05-20T09:32:42.608Z,12.40
2019-05-20T09:33:37.770Z,13.60
2019-05-20T09:34:37.760Z,12.60
2019-05-20T09:35:37.755Z,15.50
2019-05-20T09:36:37.775Z,12.60
2019-05-20T09:37:37.759Z,12.70
2019-05-20T09:38:37.722Z,10.10
2019-05-20T09:39:38.256Z,12.00
2019-05-20T09:40:37.700Z,12.60
2019-05-20T09:41:37.685Z,11.60
2019-05-20T09:42:40.755Z,13.40
2019-05-20T09:43:37.744Z,12.80
2019-05-20T09:44:37.660Z,11.50
2019-05-20T09:45:37.669Z,12.20
2019-05-20T09:46:38.248Z,13.00
2019-05-20T09:47:37.761Z,11.20
2019-05-20T09:48:38.247Z,10.70
2019-05-20T09:49:38.299Z,11.70
2019-05-20T09:50:37.590Z,10.40
2019-05-20T09:51:37.582Z,12.10
2019-05-20T09:52:37.774Z,12.30
2019-05-20T09:53:38.270Z,15.40
2019-05-20T09:54:37.553Z,13.10
2019-05-20T09:55:37.777Z,11.10
2019-05-20T09:56:38.273Z,15.90
2019-05-20T09:57:37.532Z,13.30
2019-05-20T09:58:37.519Z,12.70
2019-05-20T09:59:43.179Z,13.80
2019-05-20T10:00:37.499Z,13.50
2019-05-20T10:01:40.182Z,13.40
2019-05-20T10:02:38.454Z,12.90
2019-05-20T10:03:37.465Z,13.30
2019-05-20T10:04:37.462Z,13.30
2019-05-20T10:05:37.998Z,10.40
2019-05-20T10:06:37.422Z,16.20
2019-05-20T10:07:37.420Z,13.30
2019-05-20T10:08:44.171Z,15.80
2019-05-20T10:09:37.390Z,13.60
2019-05-20T10:10:37.386Z,12.90
2019-05-20T10:11:37.396Z,14.80
2019-05-20T10:12:46.110Z,12.90
2019-05-20T10:13:37.354Z,13.60
2019-05-20T10:14:37.378Z,14.70
2019-05-20T10:15:37.331Z,14.40
2019-05-20T10:16:37.335Z,13.70
2019-05-20T10:17:38.263Z,12.80
2019-05-20T10:18:39.379Z,12.80
2019-05-20T10:19:37.302Z,12.30
2019-05-20T10:20:37.273Z,15.20
2019-05-20T10:21:37.264Z,12.20
2019-05-20T10:22:37.256Z,14.20
2019-05-20T10:23:37.264Z,13.80
2019-05-20T10:24:37.233Z,13.30
2019-05-20T10:25:37.752Z,12.80
2019-05-20T10:26:37.753Z,12.00
2019-05-20T10:27:37.201Z,12.00
2019-05-20T10:28:41.872Z,11.50
2019-05-20T10:29:37.179Z,13.40
2019-05-20T10:30:37.172Z,10.60
2019-05-20T10:31:37.169Z,12.10
2019-05-20T10:32:37.145Z,10.30
2019-05-20T10:33:37.349Z,10.90
2019-05-20T10:34:37.790Z,8.90
2019-05-20T10:35:37.179Z,10.40
2019-05-20T10:36:37.145Z,8.30
2019-05-20T10:37:37.091Z,9.90
2019-05-20T10:38:54.833Z,10.20
2019-05-20T10:39:37.076Z,9.30
2019-05-20T10:40:37.760Z,10.30
2019-05-20T10:41:37.061Z,9.00
2019-05-20T10:42:37.755Z,11.30
2019-05-20T10:43:37.042Z,7.20
2019-05-20T10:44:41.554Z,7.60
2019-05-20T10:45:37.011Z,8.40
2019-05-20T10:46:37.786Z,9.70
2019-05-20T10:47:37.752Z,13.40
2019-05-20T10:48:37.014Z,11.00
2019-05-20T10:49:36.970Z,8.50
2019-05-20T10:50:36.955Z,11.70
2019-05-20T10:51:36.944Z,12.00
2019-05-20T10:52:36.932Z,6.30
2019-05-20T10:53:37.768Z,8.60
2019-05-20T10:54:37.285Z,8.60
2019-05-20T10:55:36.900Z,10.50
2019-05-20T10:56:36.889Z,6.20
2019-05-20T10:57:36.919Z,6.30
2019-05-20T10:58:36.868Z,6.20
2019-05-20T10:59:37.292Z,10.30
2019-05-20T11:00:36.848Z,7.60
2019-05-20T11:01:36.836Z,14.00
2019-05-20T11:02:36.838Z,8.40
2019-05-20T11:03:36.814Z,7.70
2019-05-20T11:04:36.812Z,11.40
2019-05-20T11:05:36.795Z,7.80
2019-05-20T11:06:37.752Z,6.00
2019-05-20T11:07:36.783Z,10.60
2019-05-20T11:08:36.759Z,6.20
2019-05-20T11:09:36.773Z,9.70
2019-05-20T11:10:36.779Z,6.90
2019-05-20T11:11:39.434Z,8.20
2019-05-20T11:12:36.990Z,8.00
2019-05-20T11:13:36.708Z,8.70
2019-05-20T11:14:36.769Z,9.30
2019-05-20T11:15:36.710Z,10.10
2019-05-20T11:16:36.686Z,7.20
2019-05-20T11:17:37.285Z,6.80
2019-05-20T11:18:36.729Z,7.10
2019-05-20T11:19:36.771Z,9.30
2019-05-20T11:20:36.701Z,7.90
2019-05-20T11:21:36.621Z,6.80
2019-05-20T11:22:36.633Z,9.10
2019-05-20T11:23:36.612Z,5.70
2019-05-20T11:24:36.782Z,7.20
2019-05-20T11:25:36.592Z,10.30
2019-05-20T11:26:36.591Z,12.70
2019-05-20T11:27:37.279Z,8.60
2019-05-20T11:28:37.255Z,6.90
2019-05-20T11:29:36.559Z,9.10
2019-05-20T11:30:36.514Z,11.70
2019-05-20T11:31:36.526Z,7.90
2019-05-20T11:32:37.272Z,9.00
2019-05-20T11:33:37.275Z,8.10
2019-05-20T11:34:37.001Z,7.50
2019-05-20T11:35:36.471Z,6.40
2019-05-20T11:36:37.314Z,6.10
2019-05-20T11:37:36.443Z,11.50
2019-05-20T11:38:36.432Z,7.70
2019-05-20T11:39:36.795Z,10.50
2019-05-20T11:40:36.405Z,6.60
2019-05-20T11:41:54.054Z,7.00
2019-05-20T11:42:36.405Z,8.30
2019-05-20T11:43:36.370Z,8.80
2019-05-20T11:44:36.377Z,8.10
2019-05-20T11:45:36.350Z,6.80
2019-05-20T11:46:37.258Z,7.40
2019-05-20T11:47:36.334Z,9.10
2019-05-20T11:48:36.314Z,7.70
2019-05-20T11:49:36.315Z,8.40
2019-05-20T11:50:36.294Z,7.10
2019-05-20T11:51:36.285Z,8.40
2019-05-20T11:52:36.317Z,8.20
2019-05-20T11:53:36.265Z,9.40
2019-05-20T11:54:36.256Z,9.70
2019-05-20T11:55:36.269Z,7.00
2019-05-20T11:56:36.285Z,7.80
2019-05-20T11:57:36.241Z,9.10
2019-05-20T11:58:36.209Z,8.00
2019-05-20T11:59:36.194Z,7.00
2019-05-20T12:00:36.193Z,6.70
2019-05-20T12:01:36.213Z,9.60
2019-05-20T12:02:36.162Z,7.30
2019-05-20T12:03:36.152Z,6.20
2019-05-20T12:04:36.761Z,7.20
2019-05-20T12:05:36.268Z,6.90
2019-05-20T12:06:36.140Z,8.50
2019-05-20T12:07:36.136Z,6.20
2019-05-20T12:08:36.114Z,10.40
2019-05-20T12:09:48.918Z,6.70
2019-05-20T12:10:36.088Z,7.10
2019-05-20T12:11:36.066Z,6.60
2019-05-20T12:12:36.053Z,6.70
2019-05-20T12:13:36.051Z,7.90
2019-05-20T12:14:36.043Z,6.10
2019-05-20T12:15:36.033Z,7.30
2019-05-20T12:16:36.760Z,10.60
2019-05-20T12:17:36.002Z,7.10
2019-05-20T12:18:35.987Z,6.10
2019-05-20T12:19:36.766Z,6.80
2019-05-20T12:20:35.975Z,8.20
2019-05-20T12:21:35.956Z,8.20
2019-05-20T12:22:36.767Z,7.60
2019-05-20T12:23:35.937Z,7.00
2019-05-20T12:24:35.923Z,8.70
2019-05-20T12:25:35.923Z,13.20
2019-05-20T12:26:35.913Z,10.20
2019-05-20T12:27:35.890Z,8.20
2019-05-20T12:28:35.877Z,6.40
2019-05-20T12:29:35.867Z,7.00
2019-05-20T12:30:35.949Z,9.10
2019-05-20T12:31:35.846Z,9.00
2019-05-20T12:32:35.840Z,7.60
2019-05-20T12:33:35.823Z,8.30
2019-05-20T12:34:35.827Z,6.50
2019-05-20T12:35:35.809Z,6.70
2019-05-20T12:36:35.796Z,7.50
2019-05-20T12:37:35.784Z,6.20
2019-05-20T12:38:35.770Z,7.20
2019-05-20T12:39:35.818Z,9.40
2019-05-20T12:40:35.762Z,7.70
2019-05-20T12:41:35.783Z,9.20
2019-05-20T12:42:35.728Z,10.00
2019-05-20T12:43:35.787Z,6.10
2019-05-20T12:44:35.704Z,6.70
2019-05-20T12:45:35.893Z,7.40
2019-05-20T12:46:35.711Z,6.80
2019-05-20T12:47:35.683Z,7.80
2019-05-20T12:48:35.726Z,8.50
2019-05-20T12:49:35.820Z,9.20
2019-05-20T12:50:35.649Z,12.90
2019-05-20T12:51:35.632Z,6.70
2019-05-20T12:52:36.277Z,10.70
2019-05-20T12:53:35.627Z,10.40
2019-05-20T12:54:36.267Z,7.90
2019-05-20T12:55:35.597Z,11.60
2019-05-20T12:56:35.599Z,14.90
2019-05-20T12:57:36.266Z,12.20
2019-05-20T12:58:35.571Z,10.30
2019-05-20T12:59:35.539Z,13.90
2019-05-20T13:00:35.781Z,10.60
2019-05-20T13:01:35.528Z,13.10
2019-05-20T13:02:36.262Z,12.50
2019-05-20T13:03:35.510Z,12.50
2019-05-20T13:04:35.498Z,14.30
2019-05-20T13:05:35.504Z,12.20
2019-05-20T13:06:35.496Z,10.30
2019-05-20T13:07:35.454Z,11.80
2019-05-20T13:08:35.454Z,13.10
2019-05-20T13:09:35.434Z,16.10
2019-05-20T13:10:36.270Z,13.50
2019-05-20T13:11:35.418Z,16.90